createdAt,value
2023-05-05T00:00:01.953Z,53.55
2023-05-05T00:01:01.945Z,53.84
2023-05-05T00:02:01.992Z,51.42
2023-05-05T00:03:02.002Z,58.26
2023-05-05T00:04:01.992Z,51.04
2023-05-05T00:05:01.914Z,56.41
2023-05-05T00:06:01.921Z,52.06
2023-05-05T00:07:01.905Z,54.08
2023-05-05T00:08:01.899Z,54.12
2023-05-05T00:09:01.877Z,57.21
2023-05-05T00:10:01.916Z,54.18
2023-05-05T00:11:01.885Z,49.25
2023-05-05T00:12:01.865Z,53.09
2023-05-05T00:13:01.920Z,50.44
2023-05-05T00:14:01.922Z,55.14
2023-05-05T00:15:01.866Z,55.94
2023-05-05T00:16:01.862Z,52.05
2023-05-05T00:17:01.859Z,54.70
2023-05-05T00:18:01.997Z,51.25
2023-05-05T00:19:01.876Z,53.84
2023-05-05T00:20:01.827Z,51.25
2023-05-05T00:21:01.826Z,49.19
2023-05-05T00:22:01.812Z,48.69
2023-05-05T00:23:01.799Z,52.17
2023-05-05T00:24:01.852Z,52.59
2023-05-05T00:25:01.808Z,54.29
2023-05-05T00:26:01.765Z,50.29
2023-05-05T00:27:01.776Z,48.14
2023-05-05T00:28:01.761Z,52.37
2023-05-05T00:29:01.762Z,52.42
2023-05-05T00:30:01.779Z,51.67
2023-05-05T00:31:01.893Z,54.95
2023-05-05T00:32:01.754Z,50.17
2023-05-05T00:33:02.000Z,50.38
2023-05-05T00:34:01.733Z,53.49
2023-05-05T00:35:01.725Z,54.98
2023-05-05T00:36:01.710Z,56.03
2023-05-05T00:37:01.723Z,50.00
2023-05-05T00:38:01.682Z,54.92
2023-05-05T00:39:02.704Z,50.98
2023-05-05T00:40:01.706Z,49.84
2023-05-05T00:41:01.686Z,54.59
2023-05-05T00:42:01.680Z,52.49
2023-05-05T00:43:01.676Z,51.12
2023-05-05T00:44:01.676Z,48.52
2023-05-05T00:45:01.660Z,50.64
2023-05-05T00:46:01.664Z,53.09
2023-05-05T00:47:01.650Z,55.03
2023-05-05T00:48:01.759Z,54.63
2023-05-05T00:49:01.661Z,55.06
2023-05-05T00:50:01.645Z,51.12
2023-05-05T00:51:01.632Z,53.90
2023-05-05T00:52:01.613Z,55.67
2023-05-05T00:53:01.599Z,53.79
2023-05-05T00:54:02.597Z,52.13
2023-05-05T00:55:01.596Z,51.88
2023-05-05T00:56:01.606Z,53.67
2023-05-05T00:57:01.588Z,51.57
2023-05-05T00:58:01.590Z,52.30
2023-05-05T00:59:01.557Z,55.43
2023-05-05T01:00:01.567Z,56.11
2023-05-05T01:01:01.586Z,54.78
2023-05-05T01:02:01.642Z,50.79
2023-05-05T01:03:01.623Z,50.80
2023-05-05T01:04:01.606Z,48.88
2023-05-05T01:05:01.527Z,53.25
2023-05-05T01:06:01.544Z,51.98
2023-05-05T01:07:01.511Z,55.87
2023-05-05T01:08:01.500Z,55.76
2023-05-05T01:09:01.527Z,55.69
2023-05-05T01:10:15.179Z,54.93
2023-05-05T01:11:03.507Z,51.56
2023-05-05T01:12:01.483Z,48.63
2023-05-05T01:13:01.514Z,54.57
2023-05-05T01:14:01.476Z,55.85
2023-05-05T01:15:01.450Z,53.35
2023-05-05T01:16:01.550Z,52.63
2023-05-05T01:17:01.462Z,53.33
2023-05-05T01:18:01.478Z,56.48
2023-05-05T01:19:01.427Z,55.99
2023-05-05T01:20:01.446Z,49.76
2023-05-05T01:21:01.417Z,54.46
2023-05-05T01:22:01.418Z,54.40
2023-05-05T01:23:01.398Z,53.16
2023-05-05T01:24:01.430Z,53.45
2023-05-05T01:25:01.386Z,54.79
2023-05-05T01:26:01.386Z,49.13
2023-05-05T01:27:01.453Z,52.71
2023-05-05T01:28:01.374Z,54.61
2023-05-05T01:29:01.358Z,56.88
2023-05-05T01:30:01.403Z,55.87
2023-05-05T01:31:01.366Z,53.59
2023-05-05T01:32:01.511Z,54.55
2023-05-05T01:33:01.347Z,54.77
2023-05-05T01:34:01.325Z,55.67
2023-05-05T01:35:01.333Z,53.12
2023-05-05T01:36:01.333Z,57.14
2023-05-05T01:37:01.301Z,56.88
2023-05-05T01:38:01.305Z,52.84
2023-05-05T01:39:01.299Z,57.13
2023-05-05T01:40:01.302Z,49.84
2023-05-05T01:41:01.284Z,53.63
2023-05-05T01:42:01.265Z,55.42
2023-05-05T01:43:01.284Z,55.84
2023-05-05T01:44:01.265Z,54.87
2023-05-05T01:45:01.248Z,53.10
2023-05-05T01:46:02.255Z,50.65
2023-05-05T01:47:01.239Z,55.88
2023-05-05T01:48:01.271Z,56.48
2023-05-05T01:49:01.231Z,57.51
2023-05-05T01:50:01.280Z,57.87
2023-05-05T01:51:01.203Z,56.27
2023-05-05T01:52:01.194Z,56.00
2023-05-05T01:53:01.186Z,56.61
2023-05-05T01:54:01.194Z,55.15
2023-05-05T01:55:01.196Z,55.69
2023-05-05T01:56:01.165Z,54.50
2023-05-05T01:57:01.165Z,58.22
2023-05-05T01:58:01.165Z,58.67
2023-05-05T01:59:01.150Z,53.55
2023-05-05T02:00:01.206Z,54.91
2023-05-05T02:01:01.186Z,54.47
2023-05-05T02:02:01.218Z,57.74
2023-05-05T02:03:01.223Z,56.26
2023-05-05T02:04:01.118Z,54.03
2023-05-05T02:05:01.112Z,54.91
2023-05-05T02:06:01.121Z,56.54
2023-05-05T02:07:01.097Z,56.55
2023-05-05T02:08:01.084Z,56.34
2023-05-05T02:09:01.084Z,52.97
2023-05-05T02:10:01.087Z,57.25
2023-05-05T02:11:01.095Z,56.20
2023-05-05T02:12:01.062Z,54.56
2023-05-05T02:13:01.132Z,55.42
2023-05-05T02:14:01.058Z,57.14
2023-05-05T02:15:01.038Z,58.13
2023-05-05T02:16:01.224Z,52.97
2023-05-05T02:17:01.031Z,53.06
2023-05-05T02:18:01.052Z,51.59
2023-05-05T02:19:01.014Z,52.30
2023-05-05T02:20:01.018Z,57.49
2023-05-05T02:21:01.033Z,60.38
2023-05-05T02:22:00.995Z,59.65
2023-05-05T02:23:00.992Z,58.22
2023-05-05T02:24:01.002Z,56.36
2023-05-05T02:25:00.973Z,53.94
2023-05-05T02:26:00.962Z,58.35
2023-05-05T02:27:00.977Z,57.14
2023-05-05T02:28:00.955Z,57.74
2023-05-05T02:29:00.943Z,57.36
2023-05-05T02:30:00.947Z,57.63
2023-05-05T02:31:01.022Z,54.20
2023-05-05T02:32:00.943Z,55.56
2023-05-05T02:33:00.978Z,52.62
2023-05-05T02:34:00.909Z,53.02
2023-05-05T02:35:00.908Z,54.85
2023-05-05T02:36:00.903Z,55.00
2023-05-05T02:37:00.931Z,54.24
2023-05-05T02:38:00.890Z,59.20
2023-05-05T02:39:00.892Z,58.21
2023-05-05T02:40:00.870Z,52.45
2023-05-05T02:41:00.868Z,60.41
2023-05-05T02:42:00.878Z,58.57
2023-05-05T02:43:00.908Z,56.35
2023-05-05T02:44:00.852Z,57.99
2023-05-05T02:45:00.842Z,56.47
2023-05-05T02:46:00.858Z,58.53
2023-05-05T02:47:00.845Z,58.22
2023-05-05T02:48:00.836Z,58.06
2023-05-05T02:49:00.860Z,56.80
2023-05-05T02:50:00.793Z,59.18
2023-05-05T02:51:00.788Z,58.28
2023-05-05T02:52:00.785Z,58.99
2023-05-05T02:53:00.778Z,57.81
2023-05-05T02:54:00.780Z,58.35
2023-05-05T02:55:00.786Z,57.89
2023-05-05T02:56:00.776Z,58.24
2023-05-05T02:57:00.761Z,57.84
2023-05-05T02:58:00.750Z,58.50
2023-05-05T02:59:00.765Z,57.28
2023-05-05T03:00:00.729Z,58.95
2023-05-05T03:01:00.736Z,56.17
2023-05-05T03:02:00.735Z,57.81
2023-05-05T03:03:00.777Z,58.87
2023-05-05T03:04:00.730Z,57.06
2023-05-05T03:05:00.699Z,56.04
2023-05-05T03:06:00.712Z,57.84
2023-05-05T03:07:00.684Z,57.06
2023-05-05T03:08:00.707Z,60.18
2023-05-05T03:09:00.671Z,59.75
2023-05-05T03:10:00.671Z,58.57
2023-05-05T03:11:00.675Z,57.14
2023-05-05T03:12:00.665Z,58.51
2023-05-05T03:13:00.819Z,60.02
2023-05-05T03:14:00.645Z,62.85
2023-05-05T03:15:00.623Z,60.94
2023-05-05T03:16:01.651Z,59.49
2023-05-05T03:17:00.612Z,60.14
2023-05-05T03:18:00.728Z,59.38
2023-05-05T03:19:00.600Z,59.22
2023-05-05T03:20:02.354Z,59.59
2023-05-05T03:21:01.588Z,58.41
2023-05-05T03:22:00.599Z,59.15
2023-05-05T03:23:00.578Z,60.10
2023-05-05T03:24:00.579Z,59.32
2023-05-05T03:25:00.574Z,59.53
2023-05-05T03:26:00.547Z,59.30
2023-05-05T03:27:00.582Z,61.57
2023-05-05T03:28:00.562Z,60.06
2023-05-05T03:29:00.572Z,59.23
2023-05-05T03:30:00.529Z,58.62
2023-05-05T03:31:00.516Z,58.10
2023-05-05T03:32:00.568Z,58.89
2023-05-05T03:33:00.534Z,61.14
2023-05-05T03:34:00.505Z,58.96
2023-05-05T03:35:00.507Z,60.38
2023-05-05T03:36:00.498Z,59.08
2023-05-05T03:37:00.516Z,59.10
2023-05-05T03:38:00.464Z,61.56
2023-05-05T03:39:00.472Z,59.93
2023-05-05T03:40:00.473Z,59.77
2023-05-05T03:41:00.445Z,61.04
2023-05-05T03:42:00.445Z,59.96
2023-05-05T03:43:00.432Z,60.26
2023-05-05T03:44:00.442Z,60.71
2023-05-05T03:45:00.441Z,60.89
2023-05-05T03:46:00.506Z,61.92
2023-05-05T03:47:00.414Z,62.21
2023-05-05T03:48:00.427Z,60.76
2023-05-05T03:49:00.410Z,60.55
2023-05-05T03:50:00.384Z,60.27
2023-05-05T03:51:00.389Z,61.43
2023-05-05T03:52:00.408Z,61.64
2023-05-05T03:53:00.377Z,59.52
2023-05-05T03:54:00.375Z,61.47
2023-05-05T03:55:00.367Z,62.63
2023-05-05T03:56:00.351Z,61.73
2023-05-05T03:57:00.355Z,60.89
2023-05-05T03:58:00.352Z,64.14
2023-05-05T03:59:00.330Z,63.11
2023-05-05T04:00:00.393Z,61.79
2023-05-05T04:01:00.316Z,61.93
2023-05-05T04:02:00.332Z,61.23
2023-05-05T04:03:00.351Z,61.15
2023-05-05T04:04:00.309Z,61.20
2023-05-05T04:05:00.344Z,61.20
2023-05-05T04:06:00.274Z,60.78
2023-05-05T04:07:00.267Z,60.81
2023-05-05T04:08:00.273Z,62.31
2023-05-05T04:09:00.256Z,61.76
2023-05-05T04:10:00.264Z,60.93
2023-05-05T04:11:00.270Z,60.58
2023-05-05T04:12:00.231Z,61.23
2023-05-05T04:13:01.324Z,60.92
2023-05-05T04:14:00.219Z,60.73
2023-05-05T04:15:00.288Z,61.41
2023-05-05T04:16:00.292Z,61.58
2023-05-05T04:17:00.209Z,61.00
2023-05-05T04:18:00.249Z,62.67
2023-05-05T04:19:00.311Z,61.54
2023-05-05T04:20:00.225Z,61.54
2023-05-05T04:21:00.188Z,61.34
2023-05-05T04:22:00.186Z,61.27
2023-05-05T04:23:00.173Z,61.49
2023-05-05T04:24:00.199Z,60.28
2023-05-05T04:25:00.228Z,59.47
2023-05-05T04:26:00.174Z,61.11
2023-05-05T04:27:00.148Z,63.60
2023-05-05T04:28:00.164Z,62.45
2023-05-05T04:29:00.184Z,63.24
2023-05-05T04:30:00.152Z,64.07
2023-05-05T04:31:01.265Z,64.64
2023-05-05T04:32:00.120Z,64.14
2023-05-05T04:33:00.172Z,64.52
2023-05-05T04:34:00.139Z,64.66
2023-05-05T04:35:00.081Z,64.17
2023-05-05T04:36:00.098Z,63.47
2023-05-05T04:37:00.067Z,63.24
2023-05-05T04:38:00.090Z,62.82
2023-05-05T04:39:00.131Z,62.32
2023-05-05T04:40:00.052Z,62.00
2023-05-05T04:41:00.068Z,61.54
2023-05-05T04:42:00.052Z,61.84
2023-05-05T04:43:01.040Z,62.46
2023-05-05T04:44:00.063Z,62.16
2023-05-05T04:45:00.012Z,62.03
2023-05-05T04:46:00.034Z,61.95
2023-05-05T04:47:00.001Z,61.53
2023-05-05T04:48:00.009Z,62.39
2023-05-05T04:49:00.014Z,61.41
2023-05-05T04:49:59.977Z,60.82
2023-05-05T04:50:59.978Z,59.73
2023-05-05T04:51:59.963Z,61.02
2023-05-05T04:52:59.949Z,61.35
2023-05-05T04:53:59.982Z,61.23
2023-05-05T04:54:59.953Z,60.54
2023-05-05T04:55:59.924Z,61.57
2023-05-05T04:57:00.947Z,62.01
2023-05-05T04:57:59.939Z,61.54
2023-05-05T04:58:59.941Z,59.44
2023-05-05T04:59:59.909Z,61.38
2023-05-05T05:00:59.902Z,63.10
2023-05-05T05:01:59.938Z,64.39
2023-05-05T05:02:59.963Z,65.06
2023-05-05T05:03:59.932Z,65.74
2023-05-05T05:04:59.889Z,64.83
2023-05-05T05:05:59.861Z,62.04
2023-05-05T05:06:59.875Z,61.35
2023-05-05T05:07:59.855Z,61.42
2023-05-05T05:08:59.848Z,62.17
2023-05-05T05:09:59.846Z,61.07
2023-05-05T05:10:59.831Z,61.45
2023-05-05T05:11:59.840Z,59.94
2023-05-05T05:12:59.853Z,59.37
2023-05-05T05:13:59.816Z,60.90
2023-05-05T05:14:59.805Z,61.44
2023-05-05T05:15:59.826Z,61.14
2023-05-05T05:16:59.785Z,61.05
2023-05-05T05:17:59.877Z,60.41
2023-05-05T05:19:01.495Z,60.45
2023-05-05T05:19:59.789Z,60.76
2023-05-05T05:20:59.762Z,60.50
2023-05-05T05:21:59.758Z,61.18
2023-05-05T05:22:59.745Z,60.10
2023-05-05T05:23:59.755Z,59.82
2023-05-05T05:24:59.732Z,60.01
2023-05-05T05:25:59.756Z,60.05
2023-05-05T05:26:59.723Z,59.76
2023-05-05T05:28:09.345Z,58.65
2023-05-05T05:29:01.723Z,61.09
2023-05-05T05:29:59.700Z,59.67
2023-05-05T05:30:59.731Z,59.98
2023-05-05T05:31:59.747Z,60.11
2023-05-05T05:32:59.709Z,60.88
2023-05-05T05:33:59.672Z,61.04
2023-05-05T05:34:59.668Z,60.41
2023-05-05T05:35:59.680Z,59.64
2023-05-05T05:36:59.661Z,60.71
2023-05-05T05:37:59.652Z,59.81
2023-05-05T05:38:59.632Z,60.17
2023-05-05T05:39:59.633Z,60.33
2023-05-05T05:40:59.647Z,61.04
2023-05-05T05:41:59.629Z,61.11
2023-05-05T05:42:59.657Z,59.44
2023-05-05T05:43:59.607Z,59.52
2023-05-05T05:44:59.603Z,60.41
2023-05-05T05:45:59.634Z,62.48
2023-05-05T05:46:59.586Z,62.72
2023-05-05T05:47:59.641Z,61.95
2023-05-05T05:48:59.578Z,61.21
2023-05-05T05:49:59.576Z,60.66
2023-05-05T05:50:59.573Z,61.09
2023-05-05T05:51:59.558Z,60.67
2023-05-05T05:52:59.576Z,59.90
2023-05-05T05:53:59.552Z,60.13
2023-05-05T05:54:59.542Z,59.42
2023-05-05T05:55:59.538Z,59.34
2023-05-05T05:56:59.554Z,59.94
2023-05-05T05:57:59.534Z,59.92
2023-05-05T05:58:59.509Z,61.24
2023-05-05T06:00:01.624Z,59.43
2023-05-05T06:00:59.494Z,58.14
2023-05-05T06:01:59.539Z,60.00
2023-05-05T06:02:59.573Z,60.04
2023-05-05T06:03:59.539Z,59.29
2023-05-05T06:04:59.483Z,60.12
2023-05-05T06:05:59.490Z,59.19
2023-05-05T06:06:59.521Z,59.03
2023-05-05T06:07:59.464Z,57.74
2023-05-05T06:08:59.460Z,58.86
2023-05-05T06:10:04.856Z,58.31
2023-05-05T06:11:00.525Z,58.60
2023-05-05T06:11:59.430Z,58.91
2023-05-05T06:12:59.483Z,58.34
2023-05-05T06:13:59.412Z,57.86
2023-05-05T06:14:59.413Z,58.78
2023-05-05T06:15:59.464Z,58.04
2023-05-05T06:16:59.406Z,57.71
2023-05-05T06:18:00.229Z,57.98
2023-05-05T06:18:59.392Z,57.05
2023-05-05T06:19:59.370Z,57.24
2023-05-05T06:20:59.368Z,56.08
2023-05-05T06:21:59.351Z,57.95
2023-05-05T06:22:59.370Z,57.44
2023-05-05T06:23:59.367Z,56.70
2023-05-05T06:24:59.394Z,57.07
2023-05-05T06:25:59.402Z,57.74
2023-05-05T06:26:59.337Z,55.35
2023-05-05T06:27:59.330Z,56.50
2023-05-05T06:28:59.306Z,57.68
2023-05-05T06:29:59.308Z,56.38
2023-05-05T06:30:59.395Z,56.68
2023-05-05T06:31:59.293Z,57.66
2023-05-05T06:32:59.353Z,56.66
2023-05-05T06:34:00.287Z,55.76
2023-05-05T06:34:59.283Z,56.51
2023-05-05T06:35:59.269Z,55.32
2023-05-05T06:36:59.247Z,55.65
2023-05-05T06:37:59.257Z,54.99
2023-05-05T06:38:59.229Z,55.42
2023-05-05T06:39:59.236Z,56.70
2023-05-05T06:40:59.238Z,55.48
2023-05-05T06:41:59.215Z,57.49
2023-05-05T06:42:59.211Z,58.34
2023-05-05T06:43:59.200Z,56.06
2023-05-05T06:44:59.214Z,57.59
2023-05-05T06:45:59.183Z,56.56
2023-05-05T06:46:59.238Z,55.38
2023-05-05T06:47:59.189Z,56.50
2023-05-05T06:48:59.172Z,55.66
2023-05-05T06:49:59.179Z,56.41
2023-05-05T06:50:59.151Z,56.52
2023-05-05T06:51:59.155Z,54.69
2023-05-05T06:52:59.145Z,53.99
2023-05-05T06:53:59.125Z,53.99
2023-05-05T06:54:59.126Z,53.99
2023-05-05T06:55:59.138Z,55.59
2023-05-05T06:56:59.733Z,55.35
2023-05-05T06:58:00.160Z,55.10
2023-05-05T06:58:59.104Z,54.94
2023-05-05T06:59:59.116Z,54.82
2023-05-05T07:00:59.159Z,54.86
2023-05-05T07:01:59.092Z,55.46
2023-05-05T07:02:59.130Z,54.77
2023-05-05T07:03:59.126Z,53.32
2023-05-05T07:04:59.065Z,53.29
2023-05-05T07:05:59.104Z,53.74
2023-05-05T07:06:59.063Z,56.46
2023-05-05T07:07:59.074Z,55.00
2023-05-05T07:08:59.053Z,54.18
2023-05-05T07:09:59.028Z,53.57
2023-05-05T07:10:59.036Z,54.20
2023-05-05T07:11:59.004Z,52.48
2023-05-05T07:12:59.168Z,53.62
2023-05-05T07:13:59.031Z,54.27
2023-05-05T07:14:59.002Z,54.58
2023-05-05T07:15:58.978Z,53.72
2023-05-05T07:16:59.054Z,53.34
2023-05-05T07:17:59.010Z,53.62
2023-05-05T07:18:58.965Z,54.24
2023-05-05T07:19:58.992Z,53.26
2023-05-05T07:20:58.962Z,54.50
2023-05-05T07:21:58.944Z,53.15
2023-05-05T07:22:58.943Z,54.55
2023-05-05T07:23:58.928Z,55.06
2023-05-05T07:24:58.909Z,55.64
2023-05-05T07:25:58.916Z,54.17
2023-05-05T07:26:58.913Z,52.53
2023-05-05T07:27:58.925Z,53.33
2023-05-05T07:28:59.121Z,52.51
2023-05-05T07:29:58.902Z,55.12
2023-05-05T07:30:58.878Z,53.23
2023-05-05T07:31:58.916Z,54.37
2023-05-05T07:32:58.874Z,54.06
2023-05-05T07:33:58.863Z,54.94
2023-05-05T07:34:58.841Z,54.16
2023-05-05T07:35:58.851Z,52.52
2023-05-05T07:36:58.845Z,51.52
2023-05-05T07:37:58.831Z,52.20
2023-05-05T07:38:58.912Z,52.68
2023-05-05T07:39:58.814Z,52.63
2023-05-05T07:40:58.844Z,53.54
2023-05-05T07:41:58.808Z,52.92
2023-05-05T07:42:58.790Z,53.93
2023-05-05T07:43:58.774Z,53.40
2023-05-05T07:44:58.917Z,53.49
2023-05-05T07:45:58.790Z,53.03
2023-05-05T07:46:59.866Z,53.24
2023-05-05T07:47:58.888Z,55.90
2023-05-05T07:48:58.751Z,54.47
2023-05-05T07:49:58.752Z,53.72
2023-05-05T07:50:58.730Z,54.68
2023-05-05T07:51:58.743Z,54.91
2023-05-05T07:53:10.895Z,55.73
2023-05-05T07:54:00.721Z,53.00
2023-05-05T07:54:58.717Z,54.53
2023-05-05T07:55:58.712Z,54.18
2023-05-05T07:56:58.735Z,53.62
2023-05-05T07:57:58.694Z,56.58
2023-05-05T07:58:58.700Z,54.79
2023-05-05T07:59:58.683Z,54.97
2023-05-05T08:00:58.748Z,55.85
2023-05-05T08:01:58.668Z,56.51
2023-05-05T08:02:58.747Z,57.17
2023-05-05T08:03:58.800Z,58.10
2023-05-05T08:04:58.648Z,61.62
2023-05-05T08:05:58.644Z,59.17
2023-05-05T08:06:58.639Z,58.53
2023-05-05T08:07:58.705Z,56.75
2023-05-05T08:08:58.616Z,58.44
2023-05-05T08:09:58.619Z,57.82
2023-05-05T08:10:58.606Z,57.80
2023-05-05T08:11:58.611Z,57.95
2023-05-05T08:12:58.680Z,57.59
2023-05-05T08:13:58.589Z,56.34
2023-05-05T08:14:58.580Z,56.07
2023-05-05T08:15:58.618Z,56.66
2023-05-05T08:16:58.641Z,58.29
2023-05-05T08:17:58.595Z,59.07
2023-05-05T08:18:58.549Z,59.48
2023-05-05T08:19:58.562Z,57.86
2023-05-05T08:20:58.548Z,58.67
2023-05-05T08:22:00.584Z,57.93
2023-05-05T08:22:58.529Z,58.06
2023-05-05T08:23:58.516Z,59.53
2023-05-05T08:24:58.516Z,60.21
2023-05-05T08:25:58.523Z,57.89
2023-05-05T08:26:58.504Z,56.74
2023-05-05T08:27:58.508Z,59.46
2023-05-05T08:28:58.489Z,57.89
2023-05-05T08:29:58.472Z,56.80
2023-05-05T08:30:58.495Z,59.10
2023-05-05T08:31:58.527Z,57.63
2023-05-05T08:32:59.289Z,57.34
2023-05-05T08:33:58.458Z,54.83
2023-05-05T08:34:58.464Z,56.06
2023-05-05T08:35:58.462Z,56.62
2023-05-05T08:36:58.456Z,56.43
2023-05-05T08:37:59.318Z,56.38
2023-05-05T08:38:59.429Z,57.70
2023-05-05T08:39:58.420Z,55.11
2023-05-05T08:40:58.446Z,56.02
2023-05-05T08:41:58.405Z,55.47
2023-05-05T08:42:58.400Z,54.98
2023-05-05T08:43:58.391Z,57.45
2023-05-05T08:44:59.002Z,55.60
2023-05-05T08:45:59.397Z,54.21
2023-05-05T08:46:58.465Z,55.48
2023-05-05T08:47:58.383Z,55.29
2023-05-05T08:48:58.483Z,53.34
2023-05-05T08:49:58.344Z,56.41
2023-05-05T08:50:59.924Z,56.79
2023-05-05T08:51:58.358Z,55.93
2023-05-05T08:52:58.413Z,54.71
2023-05-05T08:53:58.339Z,54.97
2023-05-05T08:54:58.309Z,56.39
2023-05-05T08:55:58.324Z,54.98
2023-05-05T08:56:58.326Z,56.79
2023-05-05T08:57:58.396Z,55.82
2023-05-05T08:58:58.296Z,57.23
2023-05-05T08:59:58.288Z,55.19
2023-05-05T09:00:58.318Z,55.91
2023-05-05T09:01:58.279Z,55.39
2023-05-05T09:02:58.425Z,55.34
2023-05-05T09:03:58.261Z,55.02
2023-05-05T09:04:59.000Z,54.05
2023-05-05T09:05:58.245Z,55.62
2023-05-05T09:06:58.233Z,54.32
2023-05-05T09:07:58.223Z,55.41
2023-05-05T09:08:59.652Z,56.42
2023-05-05T09:09:59.207Z,56.78
2023-05-05T09:10:58.233Z,56.39
2023-05-05T09:11:58.192Z,54.87
2023-05-05T09:12:58.213Z,54.88
2023-05-05T09:13:58.178Z,54.48
2023-05-05T09:14:59.265Z,53.41
2023-05-05T09:15:58.226Z,55.08
2023-05-05T09:16:58.186Z,55.08
2023-05-05T09:17:58.221Z,55.79
2023-05-05T09:18:58.158Z,54.64
2023-05-05T09:19:58.148Z,53.09
2023-05-05T09:20:59.488Z,54.92
2023-05-05T09:21:59.154Z,54.49
2023-05-05T09:22:58.130Z,54.73
2023-05-05T09:24:02.408Z,53.14
2023-05-05T09:25:00.133Z,54.77
2023-05-05T09:25:58.105Z,52.60
2023-05-05T09:26:59.129Z,51.22
2023-05-05T09:27:58.105Z,52.78
2023-05-05T09:28:58.091Z,53.19
2023-05-05T09:29:58.157Z,52.80
2023-05-05T09:30:58.111Z,53.38
2023-05-05T09:31:58.084Z,52.21
2023-05-05T09:32:58.131Z,53.92
2023-05-05T09:33:58.067Z,51.46
2023-05-05T09:34:58.058Z,53.78
2023-05-05T09:35:58.045Z,53.40
2023-05-05T09:36:58.231Z,51.58
2023-05-05T09:37:58.044Z,51.63
2023-05-05T09:38:58.832Z,52.92
2023-05-05T09:39:59.029Z,50.85
2023-05-05T09:40:58.033Z,50.64
2023-05-05T09:41:58.007Z,50.76
2023-05-05T09:42:58.027Z,50.62
2023-05-05T09:43:58.021Z,52.15
2023-05-05T09:44:59.756Z,54.31
2023-05-05T09:45:59.020Z,53.65
2023-05-05T09:46:57.977Z,52.31
2023-05-05T09:48:00.215Z,49.51
2023-05-05T09:48:58.983Z,50.96
2023-05-05T09:49:57.962Z,50.85
2023-05-05T09:50:57.981Z,52.69
2023-05-05T09:51:57.944Z,52.76
2023-05-05T09:52:58.012Z,52.54
2023-05-05T09:53:57.942Z,51.44
2023-05-05T09:54:57.929Z,52.16
2023-05-05T09:55:57.917Z,51.16
2023-05-05T09:56:57.930Z,50.72
2023-05-05T09:57:57.937Z,49.92
2023-05-05T09:58:58.770Z,50.73
2023-05-05T09:59:58.916Z,48.10
2023-05-05T10:00:57.898Z,50.31
2023-05-05T10:01:57.968Z,48.96
2023-05-05T10:02:57.887Z,50.67
2023-05-05T10:03:57.869Z,49.18
2023-05-05T10:04:58.583Z,49.57
2023-05-05T10:05:57.843Z,49.63
2023-05-05T10:06:57.848Z,49.97
2023-05-05T10:07:57.843Z,49.78
2023-05-05T10:08:57.958Z,51.55
2023-05-05T10:09:57.850Z,50.24
2023-05-05T10:10:57.818Z,51.55
2023-05-05T10:11:57.815Z,49.67
2023-05-05T10:12:57.878Z,49.80
2023-05-05T10:13:57.831Z,50.27
2023-05-05T10:14:57.808Z,48.26
2023-05-05T10:15:58.016Z,47.74
2023-05-05T10:16:57.801Z,48.64
2023-05-05T10:18:06.773Z,48.24
2023-05-05T10:18:59.805Z,47.97
2023-05-05T10:19:57.781Z,47.07
2023-05-05T10:20:57.792Z,47.88
2023-05-05T10:21:57.765Z,49.57
2023-05-05T10:22:57.744Z,48.70
2023-05-05T10:23:57.818Z,49.34
2023-05-05T10:24:57.805Z,46.79
2023-05-05T10:25:57.770Z,49.37
2023-05-05T10:26:57.745Z,48.40
2023-05-05T10:27:57.727Z,50.23
2023-05-05T10:28:57.732Z,47.77
2023-05-05T10:29:57.736Z,49.01
2023-05-05T10:30:57.744Z,48.44
2023-05-05T10:31:57.758Z,47.72
2023-05-05T10:33:12.310Z,47.41
2023-05-05T10:33:58.826Z,47.82
2023-05-05T10:34:57.701Z,49.32
2023-05-05T10:35:57.702Z,48.52
2023-05-05T10:36:57.676Z,47.94
2023-05-05T10:37:57.746Z,48.79
2023-05-05T10:38:57.672Z,51.88
2023-05-05T10:39:57.709Z,50.39
2023-05-05T10:40:58.209Z,49.40
2023-05-05T10:41:57.670Z,49.37
2023-05-05T10:42:57.639Z,50.41
2023-05-05T10:43:57.657Z,47.69
2023-05-05T10:44:57.639Z,48.83
2023-05-05T10:45:57.701Z,49.15
2023-05-05T10:46:57.642Z,48.51
2023-05-05T10:47:57.697Z,50.05
2023-05-05T10:48:57.643Z,52.29
2023-05-05T10:49:57.609Z,51.69
2023-05-05T10:50:57.587Z,51.09
2023-05-05T10:51:57.609Z,51.30
2023-05-05T10:52:57.577Z,51.37
2023-05-05T10:53:57.597Z,49.56
2023-05-05T10:54:57.569Z,50.29
2023-05-05T10:55:57.567Z,50.79
2023-05-05T10:56:57.638Z,51.45
2023-05-05T10:57:57.554Z,50.24
2023-05-05T10:59:00.556Z,50.31
2023-05-05T10:59:58.585Z,50.57
2023-05-05T11:00:57.589Z,48.72
2023-05-05T11:01:57.532Z,48.56
2023-05-05T11:02:57.615Z,47.93
2023-05-05T11:03:57.604Z,46.01
2023-05-05T11:04:57.544Z,49.45
2023-05-05T11:05:57.621Z,48.45
2023-05-05T11:06:57.495Z,48.89
2023-05-05T11:07:57.494Z,50.93
2023-05-05T11:08:57.493Z,50.49
2023-05-05T11:09:57.506Z,48.73
2023-05-05T11:10:57.476Z,48.86
2023-05-05T11:11:57.475Z,50.42
2023-05-05T11:12:57.565Z,53.03
2023-05-05T11:13:57.461Z,49.03
2023-05-05T11:14:57.462Z,48.58
2023-05-05T11:15:57.456Z,47.91
2023-05-05T11:16:57.481Z,51.81
2023-05-05T11:17:57.506Z,49.75
2023-05-05T11:18:57.449Z,48.92
2023-05-05T11:19:57.435Z,50.02
2023-05-05T11:20:57.487Z,51.37
2023-05-05T11:21:57.604Z,49.40
2023-05-05T11:22:57.432Z,50.53
2023-05-05T11:23:57.412Z,49.37
2023-05-05T11:24:57.403Z,50.80
2023-05-05T11:25:57.390Z,48.68
2023-05-05T11:26:57.383Z,49.97
2023-05-05T11:27:57.398Z,49.09
2023-05-05T11:28:57.451Z,48.90
2023-05-05T11:29:57.386Z,50.00
2023-05-05T11:30:58.135Z,48.38
2023-05-05T11:31:57.367Z,47.04
2023-05-05T11:32:57.395Z,49.76
2023-05-05T11:33:57.363Z,45.92
2023-05-05T11:34:57.357Z,48.20
2023-05-05T11:35:57.334Z,47.41
2023-05-05T11:36:57.351Z,47.89
2023-05-05T11:37:57.329Z,45.30
2023-05-05T11:38:57.352Z,45.72
2023-05-05T11:39:57.324Z,48.56
2023-05-05T11:40:57.309Z,49.49
2023-05-05T11:41:57.313Z,49.04
2023-05-05T11:42:57.297Z,47.23
2023-05-05T11:43:57.316Z,45.52
2023-05-05T11:44:57.320Z,46.64
2023-05-05T11:45:57.295Z,49.25
2023-05-05T11:47:01.158Z,47.46
2023-05-05T11:47:57.282Z,46.56
2023-05-05T11:48:57.263Z,47.32
2023-05-05T11:49:57.258Z,47.83
2023-05-05T11:50:57.243Z,48.25
2023-05-05T11:51:57.239Z,46.60
2023-05-05T11:52:57.254Z,47.96
2023-05-05T11:53:59.031Z,49.20
2023-05-05T11:54:57.231Z,48.83
2023-05-05T11:55:57.221Z,49.32
2023-05-05T11:56:57.207Z,51.65
2023-05-05T11:57:57.208Z,51.34
2023-05-05T11:58:57.227Z,48.59
2023-05-05T11:59:57.224Z,51.17
2023-05-05T12:00:57.210Z,48.62
2023-05-05T12:01:57.180Z,49.61
2023-05-05T12:02:57.258Z,50.30
2023-05-05T12:03:57.246Z,52.10
2023-05-05T12:04:57.269Z,51.36
2023-05-05T12:05:57.168Z,51.55
2023-05-05T12:06:57.198Z,50.56
2023-05-05T12:07:57.148Z,50.44
2023-05-05T12:08:57.161Z,50.01
2023-05-05T12:09:57.179Z,51.33
2023-05-05T12:10:57.161Z,50.05
2023-05-05T12:11:57.126Z,50.64
2023-05-05T12:12:57.214Z,51.33
2023-05-05T12:13:57.100Z,51.78
2023-05-05T12:14:57.102Z,51.39
2023-05-05T12:15:57.168Z,54.21
2023-05-05T12:16:57.207Z,51.77
2023-05-05T12:17:57.156Z,54.02
2023-05-05T12:18:57.077Z,51.99
2023-05-05T12:19:57.089Z,53.11
2023-05-05T12:20:57.064Z,54.53
2023-05-05T12:21:57.139Z,52.34
2023-05-05T12:22:57.056Z,53.83
2023-05-05T12:23:57.044Z,52.72
2023-05-05T12:24:57.044Z,54.41
2023-05-05T12:25:58.045Z,52.75
2023-05-05T12:26:57.028Z,52.29
2023-05-05T12:27:57.034Z,52.40
2023-05-05T12:28:57.015Z,53.54
2023-05-05T12:29:57.014Z,52.24
2023-05-05T12:30:57.037Z,55.34
2023-05-05T12:31:57.050Z,55.13
2023-05-05T12:32:57.193Z,54.23
2023-05-05T12:33:56.979Z,54.30
2023-05-05T12:34:56.979Z,53.65
2023-05-05T12:35:56.992Z,53.35
2023-05-05T12:36:56.985Z,56.71
2023-05-05T12:37:56.984Z,55.59
2023-05-05T12:38:56.962Z,51.40
2023-05-05T12:39:56.949Z,55.91
2023-05-05T12:40:56.932Z,53.30
2023-05-05T12:41:56.942Z,56.89
2023-05-05T12:42:56.944Z,56.86
2023-05-05T12:43:56.925Z,55.97
2023-05-05T12:44:56.937Z,55.80
2023-05-05T12:45:56.936Z,58.74
2023-05-05T12:46:56.912Z,57.87
2023-05-05T12:47:56.922Z,56.51
2023-05-05T12:48:57.017Z,57.54
2023-05-05T12:49:56.899Z,56.47
2023-05-05T12:50:56.896Z,58.53
2023-05-05T12:51:56.889Z,59.25